Time;durP1;ratioP1;P1;durP2;ratioP2;P2;SDS_P1;SDS_P2;PMS_P1;PMS_P2;Temp;Humidity;BMP_temperature;BMP_pressure;BME280_temperature;BME280_humidity;BME280_pressure;Samples;Min_cycle;Max_cycle;Signal;HPM_P1;HPM_P2
2022/12/20 00:19:58;;;;;;;4.45;1.50;;;;;;;;;;6178476;22;21009035;-72
2022/12/20 00:25:50;;;;;;;4.97;1.90;;;;;;;;;;6190195;22;20031;-74
2022/12/20 00:44:59;;;;;;;4.32;1.90;;;;;;;;;;5096701;27;20400;-72
2022/12/20 00:47:26;;;;;;;4.18;1.80;;;;;;;;;;5043820;28;20055;-72
2022/12/20 00:50:02;;;;;;;5.15;2.13;;;;;;;;;;4996669;28;20963;-76
2022/12/20 00:55:01;;;;;;;5.80;1.80;;;;;;;;;;4942519;28;20060;-75
2022/12/20 00:57:28;;;;;;;4.30;1.77;;;;;;;;;;4920485;28;20099;-74
2022/12/20 00:59:57;;;;;;;5.78;1.90;;;;;;;;;;4966184;28;20998;-72
2022/12/20 01:02:26;;;;;;;3.53;1.65;;;;;;;;;;4959287;28;20122;-73
2022/12/20 01:04:52;;;;;;;4.03;1.70;;;;;;;;;;5002043;28;20044;-73
2022/12/20 01:12:10;;;;;;;3.90;1.52;;;;;;;;;;4966164;28;20137;-75
2022/12/20 01:22:14;;;;;;;4.88;1.80;;;;;;;;;;4990009;27;20549;-71
2022/12/20 01:24:42;;;;;;;4.25;1.67;;;;;;;;;;4947596;28;20058;-72
2022/12/20 01:27:09;;;;;;;5.00;2.00;;;;;;;;;;4924954;28;20098;-72
2022/12/20 01:29:36;;;;;;;4.03;1.65;;;;;;;;;;4955800;28;20157;-71
2022/12/20 01:32:02;;;;;;;4.25;1.60;;;;;;;;;;4991049;28;20057;-73
2022/12/20 01:34:29;;;;;;;5.35;1.70;;;;;;;;;;4995892;28;20050;-76
2022/12/20 01:36:56;;;;;;;5.35;1.92;;;;;;;;;;4957747;28;20055;-75
2022/12/20 01:39:29;;;;;;;4.57;1.85;;;;;;;;;;4906402;28;20214;-75
2022/12/20 01:47:03;;;;;;;8.25;1.77;;;;;;;;;;5036534;27;20473;-74
2022/12/20 01:49:32;;;;;;;4.05;1.73;;;;;;;;;;4981342;28;20044;-72
2022/12/20 01:52:03;;;;;;;3.53;1.58;;;;;;;;;;5013653;28;20278;-70
2022/12/20 01:54:32;;;;;;;5.05;1.80;;;;;;;;;;5023733;28;20059;-72
2022/12/20 01:57:00;;;;;;;5.63;1.70;;;;;;;;;;4955978;28;20052;-73
2022/12/20 01:59:27;;;;;;;6.30;1.83;;;;;;;;;;4988254;28;20141;-74
2022/12/20 02:01:58;;;;;;;3.67;1.52;;;;;;;;;;4973783;28;20887;-75
2022/12/20 02:04:26;;;;;;;4.10;1.88;;;;;;;;;;4974774;28;20054;-72
2022/12/20 02:06:53;;;;;;;4.28;1.75;;;;;;;;;;5021673;28;20052;-76
2022/12/20 02:09:20;;;;;;;3.63;1.70;;;;;;;;;;4981599;28;20053;-76
2022/12/20 02:11:53;;;;;;;7.88;1.85;;;;;;;;;;5003551;28;20084;-72
2022/12/20 02:14:26;;;;;;;4.15;1.90;;;;;;;;;;5011103;28;20073;-77
2022/12/20 02:16:58;;;;;;;3.70;1.65;;;;;;;;;;5024368;28;20286;-75
2022/12/20 02:21:55;;;;;;;8.68;2.28;;;;;;;;;;4922132;28;20139;-76
2022/12/20 02:24:40;;;;;;;5.40;1.92;;;;;;;;;;5010600;28;20138;-75
2022/12/20 02:27:23;;;;;;;5.75;1.95;;;;;;;;;;4976305;28;20053;-76
2022/12/20 02:30:05;;;;;;;8.13;2.20;;;;;;;;;;5006895;28;20064;-73
2022/12/20 02:32:35;;;;;;;4.60;1.92;;;;;;;;;;5016192;28;20044;-72
2022/12/20 02:35:01;;;;;;;4.05;1.80;;;;;;;;;;5016455;28;20048;-74
2022/12/20 02:37:28;;;;;;;5.63;2.13;;;;;;;;;;5000304;28;20130;-75
2022/12/20 02:39:55;;;;;;;4.50;1.73;;;;;;;;;;4950578;28;20068;-73
2022/12/20 02:42:23;;;;;;;7.50;1.85;;;;;;;;;;4996206;28;20060;-71
2022/12/20 02:47:40;;;;;;;4.85;1.80;;;;;;;;;;5034293;28;20048;-72
2022/12/20 02:50:07;;;;;;;5.13;2.05;;;;;;;;;;5023493;28;20053;-73
2022/12/20 02:52:34;;;;;;;5.75;2.20;;;;;;;;;;5019661;28;20135;-71
2022/12/20 02:55:02;;;;;;;5.70;2.00;;;;;;;;;;4958901;28;20313;-71
2022/12/20 02:57:32;;;;;;;5.95;2.15;;;;;;;;;;4947675;28;20111;-73
2022/12/20 03:00:04;;;;;;;5.53;2.30;;;;;;;;;;4863452;28;20080;-76
2022/12/20 03:03:21;;;;;;;5.05;1.80;;;;;;;;;;4944174;28;20050;-71
2022/12/20 03:05:22;;;;;;;5.28;2.00;;;;;;;;;;4917899;28;20060;-70
2022/12/20 03:07:52;;;;;;;4.82;2.15;;;;;;;;;;4962597;28;20062;-72
2022/12/20 03:10:19;;;;;;;4.82;2.00;;;;;;;;;;4994375;28;20061;-73
2022/12/20 03:12:46;;;;;;;5.70;1.83;;;;;;;;;;4982011;28;20053;-74
2022/12/20 03:15:13;;;;;;;5.05;2.10;;;;;;;;;;4986647;28;20049;-72
2022/12/20 03:17:41;;;;;;;7.20;1.90;;;;;;;;;;4985388;28;20069;-73
2022/12/20 03:25:21;;;;;;;6.70;2.15;;;;;;;;;;4975163;27;20512;-73
2022/12/20 03:27:47;;;;;;;6.10;1.80;;;;;;;;;;5016965;28;20040;-72
2022/12/20 03:30:14;;;;;;;5.15;1.90;;;;;;;;;;5018949;28;20060;-74
2022/12/20 03:32:43;;;;;;;7.28;1.90;;;;;;;;;;4984103;28;20077;-75
2022/12/20 03:40:19;;;;;;;4.25;1.95;;;;;;;;;;5032921;27;20443;-72
2022/12/20 03:42:46;;;;;;;6.72;2.20;;;;;;;;;;4984334;28;20060;-69
2022/12/20 03:45:12;;;;;;;7.85;2.08;;;;;;;;;;4946274;28;20054;-72
2022/12/20 03:47:39;;;;;;;4.75;2.10;;;;;;;;;;4923909;28;20062;-72
2022/12/20 03:50:06;;;;;;;6.18;2.05;;;;;;;;;;4916374;28;20089;-72
2022/12/20 03:52:33;;;;;;;4.15;1.75;;;;;;;;;;4970079;28;20054;-70
2022/12/20 03:55:00;;;;;;;3.70;1.90;;;;;;;;;;4926386;28;20201;-73
2022/12/20 03:57:28;;;;;;;6.57;1.85;;;;;;;;;;4911077;28;20379;-72
2022/12/20 03:59:57;;;;;;;4.35;2.15;;;;;;;;;;4932433;28;20118;-75
2022/12/20 04:04:49;;;;;;;4.68;1.85;;;;;;;;;;4862322;29;20135;-73
2022/12/20 04:12:28;;;;;;;5.82;1.77;;;;;;;;;;5009441;27;20483;-77
2022/12/20 04:14:55;;;;;;;6.53;1.92;;;;;;;;;;4934543;28;20142;-77
2022/12/20 04:17:22;;;;;;;5.35;1.95;;;;;;;;;;4921961;28;20094;-73
2022/12/20 04:19:49;;;;;;;4.55;2.10;;;;;;;;;;4849484;28;20052;-72
2022/12/20 04:22:16;;;;;;;4.53;1.85;;;;;;;;;;4882120;28;20048;-73
2022/12/20 04:24:43;;;;;;;5.60;1.80;;;;;;;;;;4856980;28;20090;-78
2022/12/20 04:27:10;;;;;;;3.72;2.03;;;;;;;;;;4877368;28;20060;-73
2022/12/20 04:44:26;;;;;;;4.70;1.73;;;;;;;;;;4792511;29;20060;-72
2022/12/20 04:46:53;;;;;;;3.28;1.83;;;;;;;;;;4858220;29;20059;-72
2022/12/20 04:49:20;;;;;;;3.70;2.00;;;;;;;;;;4814470;29;20119;-74
2022/12/20 04:51:47;;;;;;;2.85;1.42;;;;;;;;;;4838669;29;20050;-71
2022/12/20 04:56:39;;;;;;;5.85;1.85;;;;;;;;;;4825894;29;20056;-75
2022/12/20 05:06:59;;;;;;;3.42;1.58;;;;;;;;;;4885646;28;20055;-75
2022/12/20 05:09:26;;;;;;;6.00;1.80;;;;;;;;;;4964747;28;20068;-73
2022/12/20 05:11:55;;;;;;;4.00;1.73;;;;;;;;;;5001099;28;20088;-76
2022/12/20 05:29:59;;;;;;;3.00;1.15;;;;;;;;;;6153227;22;1392718;-72
2022/12/20 05:32:28;;;;;;;3.67;1.60;;;;;;;;;;6042672;23;20057;-75
2022/12/20 05:37:38;;;;;;;3.65;1.75;;;;;;;;;;5021351;27;1564041;-78
2022/12/20 05:42:32;;;;;;;5.43;1.73;;;;;;;;;;4884472;28;20146;-76
2022/12/20 05:45:00;;;;;;;3.67;1.58;;;;;;;;;;4915988;28;20335;-72
2022/12/20 05:47:32;;;;;;;2.60;1.42;;;;;;;;;;4979084;28;21291;-73
2022/12/20 05:49:59;;;;;;;7.68;1.92;;;;;;;;;;5010354;28;20064;-75
2022/12/20 05:52:26;;;;;;;3.47;1.73;;;;;;;;;;4993580;28;20252;-72
2022/12/20 05:54:57;;;;;;;3.75;1.55;;;;;;;;;;5012439;28;20100;-71
2022/12/20 05:57:29;;;;;;;3.47;1.40;;;;;;;;;;4993798;28;20231;-72
2022/12/20 05:59:56;;;;;;;3.58;1.70;;;;;;;;;;5018109;28;20191;-75
2022/12/20 06:02:23;;;;;;;4.35;1.60;;;;;;;;;;5014971;28;20056;-71
2022/12/20 06:04:49;;;;;;;4.53;1.83;;;;;;;;;;4992154;28;20057;-73
2022/12/20 06:07:21;;;;;;;3.47;1.60;;;;;;;;;;5025532;28;20056;-73
2022/12/20 06:09:48;;;;;;;6.68;1.77;;;;;;;;;;5019529;28;20056;-78
2022/12/20 06:12:17;;;;;;;5.45;1.80;;;;;;;;;;5029692;28;20057;-77
2022/12/20 06:14:44;;;;;;;4.20;1.85;;;;;;;;;;4986607;28;20166;-72
2022/12/20 06:17:28;;;;;;;3.42;1.63;;;;;;;;;;4979828;28;20346;-76
2022/12/20 06:19:57;;;;;;;5.55;2.05;;;;;;;;;;4967738;28;20058;-75
2022/12/20 06:22:23;;;;;;;;;;;;;;;;;;4937985;28;20058;-74
2022/12/20 06:53:21;;;;;;;3.40;1.57;;;;;;;;;;6041313;22;3899953;-75
2022/12/20 06:55:49;;;;;;;4.43;1.83;;;;;;;;;;6065951;23;20030;-78
2022/12/20 06:58:16;;;;;;;4.32;1.65;;;;;;;;;;6091770;23;20021;-73
2022/12/20 07:03:39;;;;;;;3.35;1.70;;;;;;;;;;6056973;23;20104;-73
2022/12/20 07:06:09;;;;;;;4.38;1.63;;;;;;;;;;5968741;23;20034;-79
2022/12/20 07:08:38;;;;;;;3.83;1.40;;;;;;;;;;6081411;23;20020;-77
2022/12/20 07:11:07;;;;;;;2.88;1.40;;;;;;;;;;6048786;23;20060;-72
2022/12/20 07:13:34;;;;;;;3.92;1.52;;;;;;;;;;6067608;23;20025;-76
2022/12/20 09:09:50;;;;;;;2.70;1.58;;;;;;;;;;5988870;22;3668508;-73
2022/12/20 09:12:20;;;;;;;3.85;1.50;;;;;;;;;;5954647;23;20029;-74
2022/12/20 09:14:50;;;;;;;4.45;1.60;;;;;;;;;;5980204;23;20129;-73
2022/12/20 09:30:27;;;;;;;2.20;1.20;;;;;;;;;;5860603;22;6067787;-72
2022/12/20 09:32:57;;;;;;;2.28;1.20;;;;;;;;;;6030488;23;20030;-72
2022/12/20 09:35:25;;;;;;;3.90;1.67;;;;;;;;;;6041159;23;20022;-73
2022/12/20 09:37:59;;;;;;;3.92;1.35;;;;;;;;;;5997036;23;20034;-71
2022/12/20 09:40:31;;;;;;;6.78;1.65;;;;;;;;;;5973138;23;20026;-74
2022/12/20 09:43:09;;;;;;;6.93;1.60;;;;;;;;;;6026398;23;20037;-72
2022/12/20 09:45:48;;;;;;;5.55;1.90;;;;;;;;;;6017991;23;20026;-73
2022/12/20 10:06:36;;;;;;;3.25;1.33;;;;;;;;;;5979899;22;4173435;-76
